Main page
METAR-TAF:

METAR-TAF

Airports :

Algiers, Algeria

Houari Boumediene Airport

latitude: 36-43N, longitude: 003-15E, elevation: 25 m

Current weather observation

The report was made 50 minutes ago, at 06:30 UTC
Calm wind
Temperature 4°C
Humidity 93%
Pressure 1018 hPa
Visibility 10 km or more
no clouds below 1500 m and no cumulonimbus

METAR: DAAG 220630Z 00000KT CAVOK 04/03 Q1018

Time: 08:20 (07:20 UTC)

Forecast

The report was made 2 hours and 20 minutes ago, at 05:00 UTC
Forecast valid from 22 at 06 UTC to 23 at 06 UTC
Wind 5 kt from the South
Visibility 10 km or more
no clouds below 1500 m and no cumulonimbus

TAF: DAAG 220500Z 2206/2306 18005KT CAVOK

Weather observations and forecasts of more than 4000 airports (METAR and TAF reports).

The available stations are represented by yellow and red dots on the map.

Hover mouse over dot to see the name of the station.

Then click to see weather observations and forecasts.

To change the map : click on the green buttons with a black cross to zoom in, on the green button with a dash to zoom out, or on the green arrows for adjacent maps.


METAR-TAF: